createdAt,value
2022-11-20T00:00:43.835Z,10.41
2022-11-20T00:05:48.160Z,10.51
2022-11-20T00:10:52.113Z,10.35
2022-11-20T00:16:01.182Z,10.28
2022-11-20T00:21:05.529Z,10.22
2022-11-20T00:26:11.522Z,10.17
2022-11-20T00:31:18.047Z,10.23
2022-11-20T00:36:24.108Z,10.32
2022-11-20T00:41:29.177Z,10.31
2022-11-20T00:46:35.128Z,10.31
2022-11-20T00:51:39.103Z,10.31
2022-11-20T00:56:43.165Z,10.21
2022-11-20T01:01:48.594Z,10.31
2022-11-20T01:06:52.555Z,10.51
2022-11-20T01:11:57.255Z,10.54
2022-11-20T01:17:02.723Z,10.39
2022-11-20T01:22:06.696Z,10.36
2022-11-20T01:27:10.689Z,10.78
2022-11-20T01:32:16.072Z,11.01
2022-11-20T01:37:19.999Z,10.80
2022-11-20T01:42:41.953Z,10.92
2022-11-20T01:47:50.440Z,10.78
2022-11-20T01:52:57.968Z,10.71
2022-11-20T01:58:02.015Z,10.78
2022-11-20T02:03:10.963Z,10.75
2022-11-20T02:08:15.437Z,10.84
2022-11-20T02:13:37.328Z,10.81
2022-11-20T02:18:43.126Z,10.79
2022-11-20T02:24:12.063Z,10.70
2022-11-20T02:29:19.286Z,10.82
2022-11-20T02:34:23.159Z,10.71
2022-11-20T02:39:30.449Z,10.72
2022-11-20T02:44:34.369Z,10.84
2022-11-20T02:49:38.259Z,10.85
2022-11-20T02:54:43.627Z,10.78
2022-11-20T02:59:48.999Z,10.77
2022-11-20T03:04:52.975Z,10.88
2022-11-20T03:09:58.313Z,11.03
2022-11-20T03:15:02.236Z,11.13
2022-11-20T03:20:07.601Z,11.20
2022-11-20T03:25:12.900Z,11.25
2022-11-20T03:30:17.082Z,11.37
2022-11-20T03:35:21.049Z,11.58
2022-11-20T03:40:26.474Z,11.58
2022-11-20T03:45:30.378Z,11.54
2022-11-20T03:50:34.257Z,11.63
2022-11-20T03:55:39.597Z,11.57
2022-11-20T04:00:43.643Z,11.68
2022-11-20T04:05:47.618Z,11.59
2022-11-20T04:10:52.955Z,11.62
2022-11-20T04:15:59.424Z,11.61
2022-11-20T04:21:03.962Z,11.63
2022-11-20T04:26:11.057Z,11.58
2022-11-20T04:31:17.176Z,11.59
2022-11-20T04:36:23.719Z,11.67
2022-11-20T04:41:30.589Z,11.57
2022-11-20T04:46:37.074Z,11.57
2022-11-20T04:51:41.127Z,11.55
2022-11-20T04:56:46.479Z,11.53
2022-11-20T05:01:50.578Z,11.62
2022-11-20T05:06:54.587Z,11.76
2022-11-20T05:11:59.928Z,11.88
2022-11-20T05:17:03.843Z,11.82
2022-11-20T05:22:07.793Z,11.81
2022-11-20T05:27:13.168Z,11.82
2022-11-20T05:32:17.488Z,12.01
2022-11-20T05:37:21.594Z,11.93
2022-11-20T05:42:33.107Z,11.94
2022-11-20T05:47:37.244Z,11.95
2022-11-20T05:52:41.156Z,12.10
2022-11-20T05:57:46.523Z,12.35
2022-11-20T06:02:50.697Z,12.41
2022-11-20T06:07:54.883Z,12.54
2022-11-20T06:13:03.502Z,12.73
2022-11-20T06:18:07.908Z,12.85
2022-11-20T06:23:11.865Z,13.24
2022-11-20T06:28:17.226Z,13.27
2022-11-20T06:33:21.250Z,12.99
2022-11-20T06:38:25.429Z,12.98
2022-11-20T06:43:31.657Z,13.38
2022-11-20T06:48:35.727Z,13.38
2022-11-20T06:53:40.389Z,13.07
2022-11-20T06:58:45.907Z,13.14
2022-11-20T07:03:54.390Z,13.53
2022-11-20T07:08:58.785Z,13.41
2022-11-20T07:14:04.382Z,13.27
2022-11-20T07:19:08.396Z,13.30
2022-11-20T07:24:12.371Z,13.08
2022-11-20T07:29:18.437Z,12.89
2022-11-20T07:34:22.515Z,12.71
2022-11-20T07:39:26.514Z,12.72
2022-11-20T07:44:31.902Z,12.74
2022-11-20T07:49:39.760Z,12.68
2022-11-20T07:54:46.069Z,12.85
2022-11-20T07:59:51.829Z,12.82
2022-11-20T08:04:56.352Z,12.76
2022-11-20T08:10:00.525Z,12.72
2022-11-20T08:15:12.575Z,13.03
2022-11-20T08:20:17.300Z,13.29
2022-11-20T08:25:21.310Z,13.31
2022-11-20T08:30:26.942Z,13.18
2022-11-20T08:35:31.116Z,13.24
2022-11-20T08:40:35.431Z,13.28
2022-11-20T08:45:40.775Z,13.31
2022-11-20T08:50:44.833Z,13.36
2022-11-20T08:55:49.036Z,13.41
2022-11-20T09:00:54.508Z,13.53
2022-11-20T09:06:02.369Z,13.52
2022-11-20T09:11:07.419Z,13.69
2022-11-20T09:16:12.947Z,13.91
2022-11-20T09:21:17.318Z,13.91
2022-11-20T09:26:21.645Z,13.79
2022-11-20T09:31:27.976Z,13.74
2022-11-20T09:36:32.115Z,13.88
2022-11-20T09:41:56.263Z,13.84
2022-11-20T09:47:09.346Z,13.85
2022-11-20T09:52:26.082Z,14.15
2022-11-20T09:57:38.220Z,13.93
2022-11-20T10:02:49.631Z,13.93
2022-11-20T10:07:57.939Z,14.08
2022-11-20T10:13:22.686Z,14.04
2022-11-20T10:18:42.475Z,13.85
2022-11-20T10:24:42.280Z,13.69
2022-11-20T10:29:50.109Z,13.75
2022-11-20T10:35:01.925Z,13.69
2022-11-20T10:40:22.788Z,13.70
2022-11-20T10:45:39.401Z,13.82
2022-11-20T10:50:57.162Z,13.81
2022-11-20T10:56:08.282Z,14.03
2022-11-20T11:01:17.751Z,14.35
2022-11-20T11:06:31.707Z,14.49
2022-11-20T11:11:36.138Z,14.71
2022-11-20T11:16:52.092Z,14.55
2022-11-20T11:21:58.963Z,14.40
2022-11-20T11:27:06.307Z,14.39
2022-11-20T11:32:11.197Z,14.54
2022-11-20T11:37:22.493Z,14.60
2022-11-20T11:42:26.606Z,14.63
2022-11-20T11:47:34.514Z,14.35
2022-11-20T11:52:47.760Z,14.38
2022-11-20T11:57:56.780Z,14.22
2022-11-20T12:03:10.432Z,14.02
2022-11-20T12:08:23.609Z,13.75
2022-11-20T12:13:41.837Z,13.62
2022-11-20T12:18:47.010Z,13.40
2022-11-20T12:24:09.139Z,13.50
2022-11-20T12:29:24.563Z,13.54
2022-11-20T12:34:46.439Z,13.31
2022-11-20T12:39:52.716Z,13.12
2022-11-20T12:45:27.879Z,12.48
2022-11-20T12:51:08.140Z,11.41
2022-11-20T12:56:22.115Z,11.25
2022-11-20T13:01:45.219Z,11.25
2022-11-20T13:06:50.203Z,11.04
2022-11-20T13:12:04.414Z,11.41
2022-11-20T13:17:15.543Z,11.19
2022-11-20T13:22:27.079Z,11.18
2022-11-20T13:27:32.524Z,11.48
2022-11-20T13:32:36.509Z,11.81
2022-11-20T13:37:40.877Z,11.57
2022-11-20T13:42:54.069Z,11.03
2022-11-20T13:47:59.343Z,10.95
2022-11-20T13:53:09.453Z,10.99
2022-11-20T13:58:33.107Z,10.91
2022-11-20T14:04:04.523Z,10.84
2022-11-20T14:09:01.983Z,10.64
2022-11-20T14:14:17.384Z,10.72
2022-11-20T14:19:32.481Z,10.62
2022-11-20T14:24:36.632Z,10.71
2022-11-20T14:29:42.617Z,10.56
2022-11-20T14:34:49.899Z,10.43
2022-11-20T14:39:55.857Z,10.48
2022-11-20T14:45:02.937Z,10.39
2022-11-20T14:50:15.084Z,10.42
2022-11-20T14:55:28.410Z,10.27
2022-11-20T15:00:36.003Z,10.21
2022-11-20T15:05:48.639Z,10.30
2022-11-20T15:10:53.988Z,10.31
2022-11-20T15:16:00.795Z,10.17
2022-11-20T15:21:08.520Z,10.29
2022-11-20T15:26:19.481Z,10.39
2022-11-20T15:31:25.865Z,10.52
2022-11-20T15:36:29.824Z,10.50
2022-11-20T15:41:33.846Z,10.41
2022-11-20T15:46:44.021Z,10.31
2022-11-20T15:51:50.518Z,10.34
2022-11-20T15:56:55.354Z,10.48
2022-11-20T16:02:00.727Z,10.53
2022-11-20T16:07:04.903Z,10.62
2022-11-20T16:12:31.527Z,10.71
2022-11-20T16:17:44.522Z,10.85
2022-11-20T16:22:48.480Z,10.69
2022-11-20T16:27:52.442Z,10.52
2022-11-20T16:32:57.927Z,10.50
2022-11-20T16:38:01.848Z,10.53
2022-11-20T16:43:11.614Z,10.57
2022-11-20T16:48:18.282Z,10.57
2022-11-20T16:53:24.029Z,10.59
2022-11-20T16:58:28.091Z,10.63
2022-11-20T17:03:33.743Z,10.63
2022-11-20T17:08:37.684Z,10.75
2022-11-20T17:13:42.176Z,10.79
2022-11-20T17:18:50.023Z,10.83
2022-11-20T17:23:54.301Z,10.90
2022-11-20T17:29:01.506Z,10.79
2022-11-20T17:34:08.041Z,10.71
2022-11-20T17:39:12.545Z,10.67
2022-11-20T17:44:16.504Z,10.68
2022-11-20T17:49:24.061Z,10.68
2022-11-20T17:54:28.201Z,10.68
2022-11-20T17:59:32.209Z,10.61
2022-11-20T18:04:37.741Z,10.45
2022-11-20T18:09:41.762Z,10.25
2022-11-20T18:14:45.863Z,10.39
2022-11-20T18:20:14.183Z,10.39
2022-11-20T18:25:17.606Z,10.46
2022-11-20T18:30:21.610Z,10.45
2022-11-20T18:35:28.223Z,10.57
2022-11-20T18:40:32.378Z,10.52
2022-11-20T18:45:37.691Z,10.62
2022-11-20T18:50:43.002Z,10.50
2022-11-20T18:55:46.957Z,10.52
2022-11-20T19:00:51.077Z,10.60
2022-11-20T19:05:56.600Z,10.41
2022-11-20T19:11:07.507Z,10.30
2022-11-20T19:16:16.081Z,10.32
2022-11-20T19:21:23.525Z,10.25
2022-11-20T19:26:28.181Z,10.27
2022-11-20T19:31:32.604Z,10.19
2022-11-20T19:36:44.560Z,10.15
2022-11-20T19:41:48.993Z,10.21
2022-11-20T19:46:53.024Z,10.20
2022-11-20T19:51:58.430Z,10.33
2022-11-20T19:57:02.427Z,10.22
2022-11-20T20:02:06.563Z,10.24
2022-11-20T20:07:12.034Z,10.48
2022-11-20T20:12:16.079Z,10.27
2022-11-20T20:17:20.140Z,10.30
2022-11-20T20:22:25.534Z,10.23
2022-11-20T20:27:29.489Z,10.21
2022-11-20T20:32:34.000Z,10.37
2022-11-20T20:37:39.511Z,10.19
2022-11-20T20:42:43.586Z,10.16
2022-11-20T20:47:47.543Z,10.19
2022-11-20T20:52:52.981Z,10.47
2022-11-20T20:57:56.994Z,10.58
2022-11-20T21:03:01.156Z,10.38
2022-11-20T21:08:25.409Z,10.29
2022-11-20T21:13:29.795Z,10.40
2022-11-20T21:18:34.649Z,10.45
2022-11-20T21:23:41.925Z,10.42
2022-11-20T21:28:45.931Z,10.47
2022-11-20T21:33:51.395Z,10.54
2022-11-20T21:38:58.806Z,10.46
2022-11-20T21:49:27.674Z,10.41
2022-11-20T21:54:35.741Z,10.41
2022-11-20T21:59:39.675Z,10.24
2022-11-20T22:04:43.927Z,10.32
2022-11-20T22:09:49.849Z,10.32
2022-11-20T22:14:53.830Z,10.33
2022-11-20T22:19:57.806Z,10.24
2022-11-20T22:25:03.125Z,10.21
2022-11-20T22:30:08.297Z,10.19
2022-11-20T22:35:12.291Z,10.25
2022-11-20T22:40:17.955Z,10.28
2022-11-20T22:45:21.913Z,10.23
2022-11-20T22:50:25.893Z,10.18
2022-11-20T22:55:33.629Z,10.11
2022-11-20T23:00:37.683Z,10.10
2022-11-20T23:05:41.992Z,10.20
2022-11-20T23:10:47.393Z,10.14
2022-11-20T23:15:51.394Z,10.20
2022-11-20T23:20:55.316Z,10.10
2022-11-20T23:26:03.185Z,10.18
2022-11-20T23:31:07.439Z,10.04
2022-11-20T23:36:12.457Z,10.07
2022-11-20T23:41:18.273Z,10.04
2022-11-20T23:46:22.418Z,10.08
2022-11-20T23:51:26.452Z,10.06
2022-11-20T23:56:31.835Z,10.01
